createdAt,value
2022-10-26T00:01:37.624Z,99735.94
2022-10-26T00:04:15.251Z,99725.09
2022-10-26T00:06:47.850Z,99744.06
2022-10-26T00:09:27.629Z,99739.03
2022-10-26T00:12:31.680Z,99736.94
2022-10-26T00:15:14.076Z,99746.03
2022-10-26T00:17:43.660Z,99747.09
2022-10-26T00:20:19.753Z,99743.94
2022-10-26T00:22:50.534Z,99741.22
2022-10-26T00:25:40.646Z,99737.22
2022-10-26T00:28:13.664Z,99740.13
2022-10-26T00:30:46.590Z,99731.38
2022-10-26T00:33:16.446Z,99733.00
2022-10-26T00:35:51.513Z,99737.16
2022-10-26T00:38:20.480Z,99736.94
2022-10-26T00:43:39.589Z,99745.81
2022-10-26T00:46:13.322Z,99754.97
2022-10-26T00:48:47.961Z,99755.34
2022-10-26T00:51:26.163Z,99752.41
2022-10-26T00:53:58.248Z,99746.38
2022-10-26T00:59:17.843Z,99733.25
2022-10-26T01:01:53.334Z,99741.34
2022-10-26T01:04:25.262Z,99737.41
2022-10-26T01:06:55.415Z,99736.53
2022-10-26T01:09:24.593Z,99730.72
2022-10-26T01:11:54.383Z,99745.25
2022-10-26T01:14:26.684Z,99740.25
2022-10-26T01:20:14.067Z,99737.69
2022-10-26T01:22:46.983Z,99739.34
2022-10-26T01:25:36.145Z,99725.34
2022-10-26T01:28:16.184Z,99731.19
2022-10-26T01:30:49.191Z,99728.06
2022-10-26T01:33:31.426Z,99736.38
2022-10-26T01:36:09.757Z,99749.25
2022-10-26T01:38:54.076Z,99747.38
2022-10-26T01:41:35.171Z,99750.47
2022-10-26T01:44:08.225Z,99751.50
2022-10-26T01:46:45.010Z,99777.03
2022-10-26T01:49:19.332Z,99760.00
2022-10-26T01:51:53.882Z,99767.47
2022-10-26T01:54:24.435Z,99767.00
2022-10-26T01:57:11.458Z,99768.84
2022-10-26T01:59:55.711Z,99779.47
2022-10-26T02:02:54.253Z,99775.28
2022-10-26T02:06:00.571Z,99774.00
2022-10-26T02:08:42.326Z,99753.41
2022-10-26T02:11:25.583Z,99771.09
2022-10-26T02:13:58.071Z,99767.19
2022-10-26T02:16:38.927Z,99762.63
2022-10-26T02:19:17.266Z,99771.84
2022-10-26T02:21:50.479Z,99767.25
2022-10-26T02:24:19.209Z,99769.13
2022-10-26T02:26:50.099Z,99776.59
2022-10-26T02:29:24.782Z,99776.66
2022-10-26T02:31:54.358Z,99771.50
2022-10-26T02:34:30.699Z,99773.00
2022-10-26T02:37:02.419Z,99768.59
2022-10-26T02:39:34.444Z,99778.03
2022-10-26T02:42:07.310Z,99777.28
2022-10-26T02:44:43.262Z,99790.44
2022-10-26T02:47:19.333Z,99796.47
2022-10-26T02:49:51.915Z,99798.97
2022-10-26T02:52:31.491Z,99787.38
2022-10-26T02:55:06.884Z,99788.66
2022-10-26T02:57:43.159Z,99789.75
2022-10-26T03:00:14.626Z,99789.31
2022-10-26T03:02:47.553Z,99785.84
2022-10-26T03:05:23.106Z,99779.41
2022-10-26T03:07:52.469Z,99778.97
2022-10-26T03:10:23.426Z,99780.47
2022-10-26T03:12:53.456Z,99777.56
2022-10-26T03:15:21.742Z,99774.25
2022-10-26T03:17:50.248Z,99766.34
2022-10-26T03:20:20.178Z,99772.84
2022-10-26T03:22:49.205Z,99773.88
2022-10-26T03:25:17.615Z,99770.78
2022-10-26T03:27:46.267Z,99776.00
2022-10-26T03:30:15.550Z,99778.50
2022-10-26T03:32:43.693Z,99773.31
2022-10-26T03:35:11.864Z,99769.16
2022-10-26T03:37:41.621Z,99765.81
2022-10-26T03:40:14.418Z,99772.03
2022-10-26T03:42:46.228Z,99762.88
2022-10-26T03:45:14.452Z,99754.38
2022-10-26T03:47:46.029Z,99757.91
2022-10-26T03:50:18.060Z,99764.59
2022-10-26T03:52:52.629Z,99744.38
2022-10-26T03:55:22.088Z,99753.78
2022-10-26T03:57:51.788Z,99748.97
2022-10-26T04:00:23.404Z,99751.28
2022-10-26T04:03:06.927Z,99745.25
2022-10-26T04:05:37.472Z,99750.69
2022-10-26T04:08:07.437Z,99739.19
2022-10-26T04:10:35.805Z,99746.91
2022-10-26T04:13:04.103Z,99748.97
2022-10-26T04:15:33.991Z,99742.13
2022-10-26T04:18:08.201Z,99736.09
2022-10-26T04:20:39.779Z,99741.28
2022-10-26T04:23:13.860Z,99745.03
2022-10-26T04:25:42.858Z,99734.38
2022-10-26T04:28:12.791Z,99734.75
2022-10-26T04:30:41.715Z,99732.88
2022-10-26T04:33:10.219Z,99718.53
2022-10-26T04:35:41.436Z,99723.53
2022-10-26T04:38:11.963Z,99729.19
2022-10-26T04:40:40.475Z,99749.78
2022-10-26T04:43:08.795Z,99746.66
2022-10-26T04:45:37.528Z,99749.78
2022-10-26T04:48:08.951Z,99751.88
2022-10-26T04:50:38.181Z,99734.59
2022-10-26T04:53:07.145Z,99721.28
2022-10-26T04:55:37.350Z,99722.72
2022-10-26T04:58:06.804Z,99724.59
2022-10-26T05:00:36.617Z,99731.28
2022-10-26T05:03:10.154Z,99729.81
2022-10-26T05:05:38.994Z,99727.09
2022-10-26T05:08:08.514Z,99728.97
2022-10-26T05:10:41.085Z,99718.16
2022-10-26T05:13:10.800Z,99723.56
2022-10-26T05:15:39.066Z,99738.97
2022-10-26T05:18:09.230Z,99746.84
2022-10-26T05:20:40.077Z,99768.75
2022-10-26T05:23:18.668Z,99780.59
2022-10-26T05:25:48.699Z,99782.88
2022-10-26T05:28:19.004Z,99780.59
2022-10-26T05:30:48.191Z,99783.09
2022-10-26T05:33:18.972Z,99786.19
2022-10-26T05:35:52.540Z,99798.88
2022-10-26T05:38:20.939Z,99795.72
2022-10-26T05:40:52.224Z,99800.94
2022-10-26T05:43:22.822Z,99800.88
2022-10-26T05:45:52.013Z,99813.38
2022-10-26T05:48:20.419Z,99796.72
2022-10-26T05:50:49.549Z,99804.22
2022-10-26T05:53:18.585Z,99802.56
2022-10-26T05:55:49.280Z,99830.84
2022-10-26T05:58:19.534Z,99832.91
2022-10-26T06:01:04.915Z,99828.72
2022-10-26T06:03:57.146Z,99839.97
2022-10-26T06:06:26.309Z,99844.50
2022-10-26T06:08:57.724Z,99845.97
2022-10-26T06:11:26.667Z,99860.44
2022-10-26T06:14:00.426Z,99880.22
2022-10-26T06:16:37.970Z,99878.69
2022-10-26T06:19:23.001Z,99880.50
2022-10-26T06:22:11.109Z,99895.25
2022-10-26T06:24:45.916Z,99902.94
2022-10-26T06:27:28.134Z,99908.00
2022-10-26T06:30:02.934Z,99916.50
2022-10-26T06:32:31.822Z,99918.94
2022-10-26T06:35:13.094Z,99922.22
2022-10-26T06:37:44.054Z,99928.84
2022-10-26T06:40:15.869Z,99931.06
2022-10-26T06:42:44.486Z,99933.50
2022-10-26T06:45:17.011Z,99942.81
2022-10-26T06:47:53.049Z,99945.91
2022-10-26T06:50:31.244Z,99951.41
2022-10-26T06:53:08.129Z,99943.03
2022-10-26T06:55:43.560Z,99949.84
2022-10-26T06:58:17.182Z,99962.69
2022-10-26T07:00:49.768Z,99970.81
2022-10-26T07:03:18.120Z,99976.97
2022-10-26T07:05:47.840Z,99971.56
2022-10-26T07:08:34.700Z,99979.84
2022-10-26T07:11:05.770Z,99986.94
2022-10-26T07:13:35.118Z,99997.72
2022-10-26T07:16:05.106Z,99999.97
2022-10-26T07:18:33.079Z,100005.63
2022-10-26T07:21:01.334Z,100004.81
2022-10-26T07:26:01.860Z,100018.78
2022-10-26T07:28:29.941Z,100011.88
2022-10-26T07:31:00.190Z,100015.88
2022-10-26T07:33:30.345Z,100024.47
2022-10-26T07:36:00.211Z,100037.41
2022-10-26T07:38:29.153Z,100029.13
2022-10-26T07:40:57.387Z,100045.31
2022-10-26T07:43:25.867Z,100041.22
2022-10-26T07:45:54.098Z,100044.28
2022-10-26T07:48:23.327Z,100052.31
2022-10-26T07:50:55.099Z,100055.38
2022-10-26T07:53:28.058Z,100065.47
2022-10-26T07:56:04.927Z,100061.72
2022-10-26T07:58:33.149Z,100065.94
2022-10-26T08:01:08.364Z,100067.97
2022-10-26T08:03:38.817Z,100081.13
2022-10-26T08:06:13.507Z,100074.19
2022-10-26T08:08:48.620Z,100083.25
2022-10-26T08:11:17.087Z,100080.19
2022-10-26T08:13:45.355Z,100073.94
2022-10-26T08:16:18.437Z,100085.97
2022-10-26T08:18:55.482Z,100090.63
2022-10-26T08:21:39.109Z,100096.03
2022-10-26T08:24:19.182Z,100091.47
2022-10-26T08:26:50.474Z,100103.59
2022-10-26T08:29:27.721Z,100108.81
2022-10-26T08:31:57.189Z,100114.69
2022-10-26T08:34:25.695Z,100111.59
2022-10-26T08:36:56.086Z,100113.09
2022-10-26T08:39:31.992Z,100122.50
2022-10-26T08:42:10.487Z,100121.47
2022-10-26T08:44:44.830Z,100121.75
2022-10-26T08:47:19.541Z,100128.81
2022-10-26T08:49:58.154Z,100131.53
2022-10-26T08:52:35.851Z,100130.13
2022-10-26T08:55:06.066Z,100146.00
2022-10-26T08:57:39.575Z,100148.78
2022-10-26T09:00:18.917Z,100149.59
2022-10-26T09:02:53.506Z,100159.22
2022-10-26T09:05:28.464Z,100170.75
2022-10-26T09:08:10.323Z,100169.34
2022-10-26T09:14:26.925Z,100180.44
2022-10-26T09:17:19.036Z,100194.91
2022-10-26T09:20:29.047Z,100213.66
2022-10-26T09:23:23.775Z,100201.94
2022-10-26T09:26:01.103Z,100205.25
2022-10-26T09:28:42.070Z,100222.03
2022-10-26T09:31:30.721Z,100216.25
2022-10-26T09:34:14.775Z,100228.38
2022-10-26T09:40:43.828Z,100236.63
2022-10-26T09:43:24.042Z,100243.16
2022-10-26T09:45:57.295Z,100243.25
2022-10-26T09:48:45.169Z,100234.91
2022-10-26T09:51:53.410Z,100233.31
2022-10-26T09:57:38.587Z,100258.59
2022-10-26T10:00:11.904Z,100248.88
2022-10-26T10:02:51.482Z,100253.13
2022-10-26T10:12:09.368Z,100272.81
2022-10-26T10:18:11.040Z,100262.94
2022-10-26T10:20:46.963Z,100279.28
2022-10-26T10:23:41.688Z,100278.88
2022-10-26T10:26:14.033Z,100288.31
2022-10-26T10:28:44.151Z,100292.69
2022-10-26T10:32:01.543Z,100279.38
2022-10-26T10:34:44.810Z,100292.31
2022-10-26T10:43:58.848Z,100315.59
2022-10-26T10:46:35.719Z,100328.97
2022-10-26T10:49:37.797Z,100341.09
2022-10-26T10:52:59.329Z,100333.44
2022-10-26T10:59:02.855Z,100358.97
2022-10-26T11:01:50.180Z,100353.56
2022-10-26T11:05:05.694Z,100375.69
2022-10-26T11:16:39.727Z,100393.59
2022-10-26T11:19:18.422Z,100385.75
2022-10-26T11:29:21.201Z,100428.53
2022-10-26T11:32:31.247Z,100411.59
2022-10-26T11:36:05.245Z,100428.63
2022-10-26T11:39:27.438Z,100418.69
2022-10-26T11:43:08.829Z,100427.34
2022-10-26T11:49:16.318Z,100433.94
2022-10-26T11:52:11.827Z,100450.94
2022-10-26T11:55:11.334Z,100462.28
2022-10-26T11:57:43.558Z,100452.44
2022-10-26T12:00:37.226Z,100455.16
2022-10-26T12:03:25.441Z,100461.38
2022-10-26T12:06:06.516Z,100496.34
2022-10-26T12:08:38.686Z,100465.16
2022-10-26T12:11:18.344Z,100470.22
2022-10-26T12:13:57.835Z,100469.81
2022-10-26T12:16:47.407Z,100473.34
2022-10-26T12:19:38.081Z,100470.75
2022-10-26T12:22:12.144Z,100476.09
2022-10-26T12:27:55.147Z,100457.88
2022-10-26T12:33:36.279Z,100487.28
2022-10-26T12:36:47.546Z,100475.03
2022-10-26T12:39:41.618Z,100486.53
2022-10-26T12:42:43.509Z,100482.84
2022-10-26T12:45:51.214Z,100495.03
2022-10-26T12:48:52.543Z,100486.22
2022-10-26T12:54:59.615Z,100505.63
2022-10-26T12:58:08.286Z,100502.50
2022-10-26T13:00:47.387Z,100507.41
2022-10-26T13:03:49.529Z,100498.06
2022-10-26T13:06:56.115Z,100508.75
2022-10-26T13:09:39.628Z,100514.84
2022-10-26T13:12:10.980Z,100507.78
2022-10-26T13:20:55.701Z,100526.59
2022-10-26T13:23:31.216Z,100524.56
2022-10-26T13:26:27.900Z,100523.97
2022-10-26T13:29:27.575Z,100522.56
2022-10-26T13:31:59.971Z,100530.72
2022-10-26T13:34:32.849Z,100542.84
2022-10-26T13:37:32.274Z,100539.00
2022-10-26T13:44:06.609Z,100531.72
2022-10-26T13:46:42.381Z,100548.09
2022-10-26T13:49:27.967Z,100556.91
2022-10-26T13:54:59.389Z,100554.41
2022-10-26T13:57:34.775Z,100571.59
2022-10-26T14:00:10.633Z,100564.81
2022-10-26T14:02:44.687Z,100581.06
2022-10-26T14:05:19.786Z,100577.66
2022-10-26T14:07:55.656Z,100576.81
2022-10-26T14:10:34.798Z,100567.19
2022-10-26T14:13:15.546Z,100574.09
2022-10-26T14:15:49.872Z,100579.09
2022-10-26T14:18:51.150Z,100581.81
2022-10-26T14:21:23.137Z,100581.38
2022-10-26T14:23:56.469Z,100585.13
2022-10-26T14:26:28.339Z,100594.06
2022-10-26T14:28:58.729Z,100592.88
2022-10-26T14:31:30.826Z,100589.06
2022-10-26T14:34:05.945Z,100595.47
2022-10-26T14:36:41.684Z,100585.06
2022-10-26T14:39:54.172Z,100583.88
2022-10-26T14:42:31.355Z,100587.59
2022-10-26T14:45:04.381Z,100597.91
2022-10-26T14:47:37.780Z,100596.22
2022-10-26T14:50:23.736Z,100581.97
2022-10-26T14:55:52.581Z,100593.69
2022-10-26T15:01:51.644Z,100590.50
2022-10-26T15:04:39.738Z,100609.91
2022-10-26T15:07:18.967Z,100605.66
2022-10-26T15:09:48.568Z,100610.63
2022-10-26T15:12:22.239Z,100610.63
2022-10-26T15:14:54.358Z,100607.88
2022-10-26T15:17:32.615Z,100618.47
2022-10-26T15:20:19.621Z,100617.94
2022-10-26T15:23:19.558Z,100618.09
2022-10-26T15:25:55.192Z,100620.31
2022-10-26T15:28:26.441Z,100629.97
2022-10-26T15:31:02.587Z,100630.81
2022-10-26T15:33:31.466Z,100631.66
2022-10-26T15:36:27.172Z,100639.09
2022-10-26T15:39:06.898Z,100635.53
2022-10-26T15:41:43.027Z,100641.56
2022-10-26T15:44:17.894Z,100636.09
2022-10-26T15:46:53.442Z,100636.03
2022-10-26T15:49:26.564Z,100639.28
2022-10-26T15:54:36.817Z,100654.53
2022-10-26T15:57:29.767Z,100649.31
2022-10-26T16:00:00.510Z,100664.72
2022-10-26T16:02:30.222Z,100664.56
2022-10-26T16:04:59.228Z,100660.69
2022-10-26T16:07:30.248Z,100666.47
2022-10-26T16:10:00.860Z,100671.00
2022-10-26T16:12:47.965Z,100672.47
2022-10-26T16:18:04.831Z,100674.72
2022-10-26T16:20:33.701Z,100682.22
2022-10-26T16:23:11.724Z,100681.25
2022-10-26T16:25:59.245Z,100683.25
2022-10-26T16:28:28.327Z,100696.13
2022-10-26T16:31:01.009Z,100693.53
2022-10-26T16:33:31.915Z,100707.44
2022-10-26T16:36:01.822Z,100714.44
2022-10-26T16:38:32.883Z,100711.44
2022-10-26T16:41:04.488Z,100719.94
2022-10-26T16:43:33.963Z,100718.59
2022-10-26T16:46:05.953Z,100712.56
2022-10-26T16:48:38.394Z,100717.53
2022-10-26T16:51:10.780Z,100728.72
2022-10-26T16:53:41.113Z,100736.75
2022-10-26T16:56:11.978Z,100730.53
2022-10-26T16:58:41.605Z,100730.06
2022-10-26T17:01:13.322Z,100733.84
2022-10-26T17:03:42.091Z,100738.13
2022-10-26T17:06:13.891Z,100747.81
2022-10-26T17:08:45.672Z,100746.81
2022-10-26T17:11:16.293Z,100750.53
2022-10-26T17:13:45.602Z,100757.19
2022-10-26T17:16:15.599Z,100759.38
2022-10-26T17:18:44.601Z,100757.03
2022-10-26T17:21:14.075Z,100767.53
2022-10-26T17:23:58.730Z,100764.91
2022-10-26T17:26:32.404Z,100766.91
2022-10-26T17:29:01.072Z,100779.06
2022-10-26T17:31:32.589Z,100783.53
2022-10-26T17:34:03.431Z,100780.44
2022-10-26T17:36:35.982Z,100780.13
2022-10-26T17:39:05.883Z,100781.16
2022-10-26T17:41:36.431Z,100788.09
2022-10-26T17:44:05.140Z,100790.31
2022-10-26T17:46:34.111Z,100794.22
2022-10-26T17:49:03.197Z,100798.78
2022-10-26T17:51:33.022Z,100800.81
2022-10-26T17:54:01.482Z,100810.28
2022-10-26T17:56:40.656Z,100824.69
2022-10-26T17:59:13.929Z,100822.66
2022-10-26T18:01:58.176Z,100830.94
2022-10-26T18:04:26.667Z,100832.63
2022-10-26T18:07:13.339Z,100839.25
2022-10-26T18:10:13.851Z,100837.72
2022-10-26T18:12:51.473Z,100840.78
2022-10-26T18:15:20.016Z,100846.50
2022-10-26T18:17:58.214Z,100838.59
2022-10-26T18:20:28.189Z,100844.31
2022-10-26T18:22:57.688Z,100841.78
2022-10-26T18:25:26.122Z,100834.00
2022-10-26T18:28:01.973Z,100833.34
2022-10-26T18:30:30.450Z,100840.78
2022-10-26T18:32:58.799Z,100837.22
2022-10-26T18:35:27.117Z,100834.38
2022-10-26T18:37:55.200Z,100851.94
2022-10-26T18:40:25.280Z,100852.78
2022-10-26T18:43:12.665Z,100850.41
2022-10-26T18:45:41.166Z,100857.84
2022-10-26T18:48:09.501Z,100849.06
2022-10-26T18:50:41.305Z,100860.22
2022-10-26T18:53:12.797Z,100860.53
2022-10-26T18:55:42.064Z,100861.72
2022-10-26T18:58:14.322Z,100866.59
2022-10-26T19:00:44.234Z,100859.66
2022-10-26T19:03:12.805Z,100868.94
2022-10-26T19:05:43.824Z,100864.56
2022-10-26T19:08:12.019Z,100868.28
2022-10-26T19:10:40.365Z,100861.53
2022-10-26T19:13:08.912Z,100862.38
2022-10-26T19:15:38.850Z,100854.06
2022-10-26T19:18:07.993Z,100862.34
2022-10-26T19:20:38.648Z,100860.66
2022-10-26T19:23:09.681Z,100858.97
2022-10-26T19:25:37.942Z,100864.69
2022-10-26T19:28:06.655Z,100870.94
2022-10-26T19:30:35.691Z,100872.13
2022-10-26T19:33:05.592Z,100868.41
2022-10-26T19:38:02.608Z,100868.59
2022-10-26T19:40:31.273Z,100869.75
2022-10-26T19:42:59.386Z,100864.19
2022-10-26T19:45:28.151Z,100875.34
2022-10-26T19:48:00.137Z,100861.66
2022-10-26T19:50:32.018Z,100861.31
2022-10-26T19:53:02.600Z,100868.91
2022-10-26T19:55:35.998Z,100867.22
2022-10-26T19:58:04.533Z,100865.38
2022-10-26T20:00:37.310Z,100871.44
2022-10-26T20:03:06.268Z,100871.78
2022-10-26T20:05:36.352Z,100873.47
2022-10-26T20:08:05.739Z,100873.47
2022-10-26T20:10:34.560Z,100873.66
2022-10-26T20:13:02.901Z,100860.28
2022-10-26T20:15:31.229Z,100873.13
2022-10-26T20:17:59.605Z,100857.25
2022-10-26T20:20:28.093Z,100866.03
2022-10-26T20:22:58.264Z,100862.16
2022-10-26T20:25:26.766Z,100864.53
2022-10-26T20:27:55.186Z,100868.75
2022-10-26T20:30:23.509Z,100861.34
2022-10-26T20:32:51.680Z,100866.38
2022-10-26T20:35:19.910Z,100866.06
2022-10-26T20:37:48.749Z,100867.56
2022-10-26T20:40:21.673Z,100866.59
2022-10-26T20:42:52.580Z,100868.44
2022-10-26T20:45:27.963Z,100862.69
2022-10-26T20:47:57.426Z,100859.63
2022-10-26T20:50:32.293Z,100862.16
2022-10-26T20:53:05.119Z,100860.81
2022-10-26T20:55:44.559Z,100861.13
2022-10-26T20:58:19.690Z,100861.31
2022-10-26T21:00:54.810Z,100861.63
2022-10-26T21:03:22.957Z,100861.63
2022-10-26T21:05:51.029Z,100859.75
2022-10-26T21:08:19.898Z,100864.19
2022-10-26T21:10:50.907Z,100870.25
2022-10-26T21:13:19.968Z,100861.78
2022-10-26T21:15:48.363Z,100870.25
2022-10-26T21:18:16.589Z,100868.75
2022-10-26T21:20:44.598Z,100864.00
2022-10-26T21:23:12.997Z,100862.31
2022-10-26T21:25:47.455Z,100860.63
2022-10-26T21:28:18.026Z,100859.44
2022-10-26T21:30:46.666Z,100863.47
2022-10-26T21:33:32.190Z,100864.31
2022-10-26T21:36:07.991Z,100871.75
2022-10-26T21:38:36.654Z,100864.50
2022-10-26T21:41:19.577Z,100863.31
2022-10-26T21:44:14.989Z,100872.25
2022-10-26T21:46:54.211Z,100868.03
2022-10-26T21:49:22.425Z,100864.63
2022-10-26T21:51:53.752Z,100861.44
2022-10-26T21:54:27.075Z,100865.00
2022-10-26T21:56:55.452Z,100859.41
2022-10-26T21:59:35.542Z,100850.31
2022-10-26T22:02:04.619Z,100848.13
2022-10-26T22:04:35.636Z,100847.47
2022-10-26T22:07:06.109Z,100846.78
2022-10-26T22:09:40.676Z,100847.31
2022-10-26T22:12:18.248Z,100840.88
2022-10-26T22:14:50.781Z,100834.47
2022-10-26T22:17:26.723Z,100833.63
2022-10-26T22:20:01.196Z,100832.44
2022-10-26T22:22:29.271Z,100826.53
2022-10-26T22:24:59.276Z,100827.19
2022-10-26T22:27:30.140Z,100828.91
2022-10-26T22:30:03.189Z,100827.91
2022-10-26T22:32:31.636Z,100828.38
2022-10-26T22:35:11.273Z,100825.19
2022-10-26T22:37:54.699Z,100814.56
2022-10-26T22:40:22.901Z,100810.66
2022-10-26T22:42:55.973Z,100814.38
2022-10-26T22:45:26.624Z,100817.25
2022-10-26T22:47:58.113Z,100815.75
2022-10-26T22:50:26.521Z,100815.56
2022-10-26T22:52:59.808Z,100796.00
2022-10-26T22:55:28.561Z,100790.22
2022-10-26T22:58:11.003Z,100790.41
2022-10-26T23:00:44.052Z,100793.94
2022-10-26T23:03:14.428Z,100799.88
2022-10-26T23:05:48.180Z,100778.25
2022-10-26T23:08:16.649Z,100776.56
2022-10-26T23:10:44.860Z,100762.38
2022-10-26T23:13:13.439Z,100773.00
2022-10-26T23:15:42.982Z,100771.16
2022-10-26T23:18:11.161Z,100764.06
2022-10-26T23:20:39.430Z,100753.44
2022-10-26T23:23:07.807Z,100758.50
2022-10-26T23:25:36.152Z,100753.94
2022-10-26T23:28:08.521Z,100755.81
2022-10-26T23:30:38.375Z,100758.13
2022-10-26T23:33:08.326Z,100758.31
2022-10-26T23:35:36.457Z,100750.22
2022-10-26T23:38:04.955Z,100757.31
2022-10-26T23:40:33.688Z,100744.47
2022-10-26T23:43:01.896Z,100760.34
2022-10-26T23:45:30.181Z,100757.81
2022-10-26T23:47:58.410Z,100762.19
2022-10-26T23:50:28.318Z,100754.94
2022-10-26T23:52:57.354Z,100752.22
2022-10-26T23:55:27.073Z,100758.34
2022-10-26T23:58:05.134Z,100752.94
